createdAt,value
2018-10-12T00:01:13.727Z,12.90
2018-10-12T00:03:42.302Z,12.57
2018-10-12T00:06:10.673Z,12.70
2018-10-12T00:08:39.436Z,13.20
2018-10-12T00:11:08.155Z,13.03
2018-10-12T00:13:36.548Z,13.00
2018-10-12T00:16:04.928Z,12.93
2018-10-12T00:18:33.381Z,12.77
2018-10-12T00:21:01.673Z,13.27
2018-10-12T00:23:30.110Z,12.47
2018-10-12T00:25:58.547Z,12.90
2018-10-12T00:28:26.820Z,12.87
2018-10-12T00:30:55.364Z,13.77
2018-10-12T00:33:23.671Z,12.90
2018-10-12T00:38:18.124Z,12.43
2018-10-12T00:40:46.448Z,12.27
2018-10-12T00:43:14.812Z,13.23
2018-10-12T00:45:43.237Z,12.97
2018-10-12T00:48:11.543Z,12.30
2018-10-12T00:50:39.982Z,12.43
2018-10-12T00:53:08.312Z,13.83
2018-10-12T00:55:36.630Z,12.63
2018-10-12T00:58:04.916Z,12.40
2018-10-12T01:00:33.311Z,13.03
2018-10-12T01:03:01.666Z,13.03
2018-10-12T01:05:30.099Z,12.63
2018-10-12T01:07:58.423Z,13.30
2018-10-12T01:10:26.814Z,13.70
2018-10-12T01:12:55.151Z,13.43
2018-10-12T01:15:23.660Z,13.23
2018-10-12T01:17:52.079Z,11.73
2018-10-12T01:23:11.278Z,13.13
2018-10-12T01:25:39.580Z,11.80
2018-10-12T01:28:07.928Z,12.37
2018-10-12T01:30:36.295Z,11.47
2018-10-12T01:33:06.123Z,11.87
2018-10-12T01:35:35.009Z,12.07
2018-10-12T01:38:03.480Z,13.30
2018-10-12T01:40:32.537Z,12.40
2018-10-12T01:43:01.287Z,11.67
2018-10-12T01:45:29.906Z,11.80
2018-10-12T01:47:58.277Z,11.77
2018-10-12T01:50:26.640Z,12.47
2018-10-12T01:52:55.138Z,11.57
2018-10-12T01:55:23.554Z,12.27
2018-10-12T01:57:51.865Z,11.70
2018-10-12T02:00:20.276Z,11.80
2018-10-12T02:02:48.712Z,12.40
2018-10-12T02:05:17.077Z,11.70
2018-10-12T02:07:45.396Z,12.13
2018-10-12T02:10:13.847Z,11.37
2018-10-12T02:12:42.120Z,11.53
2018-10-12T02:15:10.452Z,11.27
2018-10-12T02:17:38.930Z,11.30
2018-10-12T02:20:07.918Z,10.73
2018-10-12T02:22:36.211Z,11.00
2018-10-12T02:25:04.924Z,10.57
2018-10-12T02:27:33.247Z,10.70
2018-10-12T02:30:01.617Z,10.67
2018-10-12T02:32:30.162Z,10.37
2018-10-12T02:34:58.468Z,11.23
2018-10-12T02:37:26.792Z,11.67
2018-10-12T02:39:55.202Z,11.07
2018-10-12T02:42:23.562Z,11.27
2018-10-12T02:44:51.893Z,10.57
2018-10-12T02:47:20.265Z,10.60
2018-10-12T02:49:48.604Z,11.97
2018-10-12T02:52:17.024Z,10.97
2018-10-12T02:54:45.436Z,11.43
2018-10-12T02:57:14.072Z,11.13
2018-10-12T02:59:42.376Z,11.30
2018-10-12T03:02:10.942Z,11.57
2018-10-12T03:04:39.224Z,11.37
2018-10-12T03:07:07.532Z,11.70
2018-10-12T03:09:35.935Z,11.70
2018-10-12T03:12:04.349Z,12.20
2018-10-12T03:14:32.624Z,12.17
2018-10-12T03:17:01.092Z,12.87
2018-10-12T03:19:29.613Z,12.20
2018-10-12T03:21:57.937Z,12.40
2018-10-12T03:24:26.431Z,11.70
2018-10-12T03:26:54.745Z,11.67
2018-10-12T03:29:23.078Z,11.53
2018-10-12T03:31:51.415Z,10.90
2018-10-12T03:34:20.169Z,10.97
2018-10-12T03:36:48.536Z,11.43
2018-10-12T03:39:17.783Z,12.27
2018-10-12T03:41:46.221Z,11.80
2018-10-12T03:44:14.671Z,12.00
2018-10-12T03:46:43.194Z,12.10
2018-10-12T03:49:11.610Z,12.47
2018-10-12T03:51:39.939Z,12.20
2018-10-12T03:54:08.321Z,11.97
2018-10-12T03:56:36.617Z,11.90
2018-10-12T03:59:05.043Z,12.33
2018-10-12T04:01:33.371Z,12.07
2018-10-12T04:04:01.699Z,12.63
2018-10-12T04:06:30.101Z,12.87
2018-10-12T04:08:58.724Z,12.40
2018-10-12T04:11:27.064Z,12.23
2018-10-12T04:13:55.448Z,12.83
2018-10-12T04:16:23.834Z,11.83
2018-10-12T04:18:52.091Z,12.33
2018-10-12T04:21:21.708Z,11.67
2018-10-12T04:23:50.024Z,12.93
2018-10-12T04:26:18.526Z,12.10
2018-10-12T04:28:46.828Z,11.13
2018-10-12T04:31:15.256Z,12.60
2018-10-12T04:33:43.716Z,11.97
2018-10-12T04:36:12.056Z,11.80
2018-10-12T04:38:52.467Z,11.20
2018-10-12T04:41:22.190Z,11.27
2018-10-12T04:43:52.315Z,11.90
2018-10-12T04:46:24.371Z,12.03
2018-10-12T04:48:53.292Z,10.87
2018-10-12T04:51:27.255Z,11.13
2018-10-12T04:53:56.130Z,11.40
2018-10-12T04:56:24.425Z,10.73
2018-10-12T04:58:52.777Z,11.50
2018-10-12T05:01:21.224Z,11.40
2018-10-12T05:03:49.733Z,10.87
2018-10-12T05:06:18.099Z,12.07
2018-10-12T05:08:46.537Z,12.07
2018-10-12T05:11:14.964Z,11.67
2018-10-12T05:13:43.396Z,11.27
2018-10-12T05:16:11.918Z,10.70
2018-10-12T05:18:40.226Z,11.57
2018-10-12T05:21:08.649Z,11.43
2018-10-12T05:23:36.976Z,11.73
2018-10-12T05:26:05.251Z,11.67
2018-10-12T05:28:35.358Z,11.07
2018-10-12T05:31:03.660Z,10.83
2018-10-12T05:33:31.979Z,11.10
2018-10-12T05:36:00.334Z,11.53
2018-10-12T05:38:29.960Z,11.77
2018-10-12T05:40:58.554Z,12.10
2018-10-12T05:43:27.188Z,11.57
2018-10-12T05:45:55.309Z,12.03
2018-10-12T05:48:34.868Z,11.17
2018-10-12T05:51:03.966Z,11.43
2018-10-12T05:53:33.494Z,11.70
2018-10-12T05:56:01.858Z,11.87
2018-10-12T05:58:30.499Z,11.60
2018-10-12T06:00:58.967Z,11.50
2018-10-12T06:03:27.354Z,11.10
2018-10-12T06:05:55.762Z,11.87
2018-10-12T06:08:24.190Z,11.87
2018-10-12T06:10:52.562Z,11.90
2018-10-12T06:13:20.950Z,11.53
2018-10-12T06:15:49.408Z,11.83
2018-10-12T06:18:17.654Z,11.73
2018-10-12T06:20:45.956Z,11.77
2018-10-12T06:23:14.287Z,12.00
2018-10-12T06:25:42.872Z,12.20
2018-10-12T06:28:11.228Z,12.80
2018-10-12T06:30:39.599Z,13.80
2018-10-12T06:33:07.944Z,12.97
2018-10-12T06:35:36.308Z,17.97
2018-10-12T06:38:04.860Z,14.97
2018-10-12T06:40:33.968Z,12.30
2018-10-12T06:43:02.307Z,11.90
2018-10-12T06:45:30.669Z,12.43
2018-10-12T06:47:59.064Z,12.27
2018-10-12T06:50:27.627Z,11.40
2018-10-12T06:52:56.032Z,11.67
2018-10-12T06:55:24.376Z,10.80
2018-10-12T06:57:52.701Z,11.37
2018-10-12T07:00:21.114Z,12.47
2018-10-12T07:02:49.445Z,11.53
2018-10-12T07:05:18.131Z,11.10
2018-10-12T07:07:46.571Z,10.93
2018-10-12T07:10:14.909Z,10.90
2018-10-12T07:12:43.247Z,11.10
2018-10-12T07:15:11.624Z,10.87
2018-10-12T07:17:39.961Z,10.43
2018-10-12T07:20:08.360Z,9.63
2018-10-12T07:22:36.732Z,9.60
2018-10-12T07:25:05.141Z,9.90
2018-10-12T07:27:33.497Z,9.37
2018-10-12T07:30:01.819Z,9.60
2018-10-12T07:32:30.681Z,9.80
2018-10-12T07:34:59.030Z,13.00
2018-10-12T07:37:27.465Z,11.60
2018-10-12T07:39:55.817Z,9.17
2018-10-12T07:42:24.142Z,8.50
2018-10-12T07:44:52.494Z,9.20
2018-10-12T07:47:20.991Z,8.33
2018-10-12T07:49:49.254Z,9.20
2018-10-12T07:52:17.614Z,9.17
2018-10-12T07:54:45.941Z,9.07
2018-10-12T07:57:15.293Z,9.83
2018-10-12T07:59:44.564Z,9.03
2018-10-12T08:02:13.679Z,9.83
2018-10-12T08:04:42.836Z,9.33
2018-10-12T08:07:12.261Z,10.20
2018-10-12T08:09:40.698Z,9.63
2018-10-12T08:12:08.930Z,9.93
2018-10-12T08:14:37.273Z,9.17
2018-10-12T08:17:05.637Z,8.70
2018-10-12T08:19:33.998Z,8.70
2018-10-12T08:22:02.407Z,7.80
2018-10-12T08:24:30.840Z,7.33
2018-10-12T08:26:59.202Z,7.20
2018-10-12T08:29:28.290Z,6.80
2018-10-12T08:31:56.912Z,6.50
2018-10-12T08:34:25.476Z,6.47
2018-10-12T08:36:53.875Z,6.50
2018-10-12T08:39:22.241Z,10.93
2018-10-12T08:41:50.766Z,7.50
2018-10-12T08:44:19.182Z,5.73
2018-10-12T08:46:47.743Z,6.10
2018-10-12T08:49:16.602Z,6.40
2018-10-12T08:51:45.016Z,5.83
2018-10-12T08:54:13.539Z,5.57
2018-10-12T08:56:41.849Z,5.43
2018-10-12T08:59:10.876Z,6.90
2018-10-12T09:01:39.274Z,5.43
2018-10-12T09:04:07.593Z,5.22
2018-10-12T09:06:36.041Z,4.87
2018-10-12T09:09:06.379Z,5.12
2018-10-12T09:11:34.768Z,5.62
2018-10-12T09:14:03.080Z,5.72
2018-10-12T09:16:31.405Z,4.55
2018-10-12T09:18:59.815Z,8.55
2018-10-12T09:21:28.363Z,4.65
2018-10-12T09:23:56.625Z,4.53
2018-10-12T09:26:24.907Z,4.17
2018-10-12T09:28:53.208Z,4.47
2018-10-12T09:31:21.551Z,4.70
2018-10-12T09:33:49.915Z,4.87
2018-10-12T09:36:18.247Z,4.20
2018-10-12T09:38:46.587Z,3.72
2018-10-12T09:41:14.929Z,4.42
2018-10-12T09:43:43.357Z,3.52
2018-10-12T09:46:11.641Z,2.85
2018-10-12T09:48:39.940Z,3.20
2018-10-12T09:51:08.299Z,3.25
2018-10-12T09:53:36.622Z,3.00
2018-10-12T09:56:05.030Z,3.02
2018-10-12T09:58:33.235Z,2.87
2018-10-12T10:01:06.777Z,3.30
2018-10-12T10:03:40.363Z,2.98
2018-10-12T10:06:08.740Z,3.02
2018-10-12T10:08:37.149Z,2.80
2018-10-12T10:11:05.355Z,2.90
2018-10-12T10:13:33.661Z,3.30
2018-10-12T10:16:02.027Z,3.22
2018-10-12T10:18:30.347Z,3.35
2018-10-12T10:20:58.622Z,3.02
2018-10-12T10:23:27.040Z,3.25
2018-10-12T10:25:55.358Z,2.83
2018-10-12T10:28:23.652Z,2.70
2018-10-12T10:30:52.023Z,2.55
2018-10-12T10:33:20.302Z,2.67
2018-10-12T10:35:48.697Z,2.52
2018-10-12T10:38:16.997Z,2.40
2018-10-12T10:40:45.385Z,2.85
2018-10-12T10:43:13.687Z,2.62
2018-10-12T10:45:41.990Z,2.85
2018-10-12T10:48:10.315Z,2.47
2018-10-12T10:50:38.639Z,3.02
2018-10-12T10:53:07.007Z,2.58
2018-10-12T10:55:35.504Z,2.98
2018-10-12T10:58:03.840Z,2.35
2018-10-12T11:00:32.144Z,2.27
2018-10-12T11:03:00.538Z,2.62
2018-10-12T11:05:28.868Z,2.67
2018-10-12T11:07:57.119Z,2.80
2018-10-12T11:10:25.486Z,2.67
2018-10-12T11:12:54.048Z,2.75
2018-10-12T11:15:22.259Z,2.40
2018-10-12T11:17:50.579Z,2.25
2018-10-12T11:20:18.851Z,2.27
2018-10-12T11:22:47.136Z,2.22
2018-10-12T11:25:15.508Z,2.55
2018-10-12T11:27:43.919Z,2.62
2018-10-12T11:30:12.239Z,2.98
2018-10-12T11:32:41.675Z,2.15
2018-10-12T11:35:10.015Z,2.15
2018-10-12T11:37:38.408Z,2.47
2018-10-12T11:40:07.052Z,3.00
2018-10-12T11:42:46.469Z,2.37
2018-10-12T11:45:14.947Z,2.37
2018-10-12T11:47:43.187Z,1.95
2018-10-12T11:50:11.543Z,2.30
2018-10-12T11:52:40.021Z,2.20
2018-10-12T11:55:09.048Z,2.37
2018-10-12T11:57:37.300Z,2.37
2018-10-12T12:00:05.699Z,2.40
2018-10-12T12:02:33.987Z,2.12
2018-10-12T12:05:02.436Z,5.42
2018-10-12T12:07:31.011Z,2.62
2018-10-12T12:09:59.319Z,2.85
2018-10-12T12:12:27.825Z,2.40
2018-10-12T12:14:57.714Z,2.65
2018-10-12T12:17:26.158Z,2.47
2018-10-12T12:19:54.481Z,2.20
2018-10-12T12:22:22.759Z,2.10
2018-10-12T12:24:51.208Z,2.15
2018-10-12T12:27:19.537Z,1.98
2018-10-12T12:29:47.918Z,2.10
2018-10-12T12:32:16.386Z,2.15
2018-10-12T12:34:46.223Z,2.20
2018-10-12T12:37:15.302Z,2.12
2018-10-12T12:39:45.956Z,2.20
2018-10-12T12:42:14.597Z,1.98
2018-10-12T12:44:42.956Z,2.15
2018-10-12T12:47:11.578Z,2.30
2018-10-12T12:49:39.929Z,1.67
2018-10-12T12:52:08.337Z,1.75
2018-10-12T12:54:36.656Z,1.98
2018-10-12T12:57:05.031Z,2.20
2018-10-12T12:59:33.402Z,2.22
2018-10-12T13:02:15.457Z,2.20
2018-10-12T13:04:43.798Z,2.22
2018-10-12T13:07:12.169Z,1.90
2018-10-12T13:09:40.531Z,1.62
2018-10-12T13:12:09.082Z,2.10
2018-10-12T13:14:37.360Z,2.20
2018-10-12T13:17:05.727Z,2.10
2018-10-12T13:19:34.250Z,2.40
2018-10-12T13:22:02.642Z,2.10
2018-10-12T13:24:31.018Z,2.10
2018-10-12T13:26:59.457Z,1.98
2018-10-12T13:29:28.123Z,1.95
2018-10-12T13:31:56.584Z,2.05
2018-10-12T13:34:24.894Z,2.00
2018-10-12T13:36:53.386Z,2.12
2018-10-12T13:39:21.792Z,2.10
2018-10-12T13:41:50.103Z,1.90
2018-10-12T13:44:18.638Z,2.60
2018-10-12T13:46:47.087Z,2.00
2018-10-12T13:49:16.500Z,2.00
2018-10-12T13:51:45.109Z,1.90
2018-10-12T13:54:13.423Z,2.27
2018-10-12T13:56:41.722Z,2.00
2018-10-12T13:59:10.069Z,2.25
2018-10-12T14:01:38.508Z,1.92
2018-10-12T14:04:07.138Z,2.10
2018-10-12T14:06:35.753Z,2.00
2018-10-12T14:09:05.230Z,1.90
2018-10-12T14:11:33.672Z,1.75
2018-10-12T14:14:02.192Z,1.90
2018-10-12T14:16:30.708Z,2.12
2018-10-12T14:18:59.359Z,2.10
2018-10-12T14:21:29.606Z,1.87
2018-10-12T14:23:58.114Z,1.87
2018-10-12T14:26:26.675Z,1.98
2018-10-12T14:28:55.252Z,2.00
2018-10-12T14:31:24.755Z,2.08
2018-10-12T14:33:53.803Z,1.70
2018-10-12T14:36:24.500Z,2.20
2018-10-12T14:38:52.947Z,2.05
2018-10-12T14:41:24.506Z,2.10
2018-10-12T14:43:53.106Z,2.10
2018-10-12T14:46:21.391Z,1.87
2018-10-12T14:48:49.911Z,2.10
2018-10-12T14:51:18.514Z,1.92
2018-10-12T15:00:51.578Z,1.95
2018-10-12T15:03:19.834Z,2.12
2018-10-12T15:05:48.196Z,1.98
2018-10-12T15:08:16.530Z,2.17
2018-10-12T15:10:44.824Z,1.70
2018-10-12T15:13:13.117Z,2.08
2018-10-12T15:15:41.460Z,1.95
2018-10-12T15:18:09.769Z,1.90
2018-10-12T15:20:38.099Z,2.00
2018-10-12T15:23:07.058Z,2.00
2018-10-12T15:25:35.357Z,1.92
2018-10-12T15:28:03.628Z,1.90
2018-10-12T15:30:31.890Z,1.98
2018-10-12T15:35:45.437Z,1.95
2018-10-12T15:38:13.740Z,1.80
2018-10-12T15:40:42.043Z,1.98
2018-10-12T15:43:10.447Z,1.92
2018-10-12T15:45:43.749Z,2.05
2018-10-12T15:48:12.350Z,2.08
2018-10-12T15:50:40.584Z,2.00
2018-10-12T15:53:09.019Z,2.20
2018-10-12T15:55:37.424Z,2.00
2018-10-12T15:58:05.712Z,1.62
2018-10-12T16:00:34.028Z,2.20
2018-10-12T16:03:05.704Z,1.70
2018-10-12T16:05:34.281Z,2.90
2018-10-12T16:08:02.579Z,3.60
2018-10-12T16:10:30.935Z,3.10
2018-10-12T16:12:59.321Z,2.45
2018-10-12T16:15:27.656Z,2.33
2018-10-12T16:17:55.956Z,2.00
2018-10-12T16:20:24.345Z,2.47
2018-10-12T16:22:52.604Z,2.40
2018-10-12T16:26:02.629Z,2.20
2018-10-12T16:28:30.989Z,2.42
2018-10-12T16:30:59.532Z,2.50
2018-10-12T16:33:28.170Z,2.22
2018-10-12T16:35:57.646Z,2.62
2018-10-12T16:38:26.166Z,2.62
2018-10-12T16:40:54.372Z,2.90
2018-10-12T16:43:22.695Z,3.00
2018-10-12T16:45:51.760Z,4.35
2018-10-12T16:48:20.228Z,4.20
2018-10-12T16:50:48.593Z,3.80
2018-10-12T16:53:16.970Z,4.17
2018-10-12T16:55:45.248Z,5.15
2018-10-12T16:58:14.412Z,4.53
2018-10-12T17:00:42.853Z,3.45
2018-10-12T17:03:11.127Z,3.65
2018-10-12T17:05:39.557Z,2.55
2018-10-12T17:08:07.870Z,3.40
2018-10-12T17:10:36.691Z,3.85
2018-10-12T17:13:05.107Z,5.03
2018-10-12T17:15:33.465Z,6.20
2018-10-12T17:18:02.164Z,3.33
2018-10-12T17:20:30.480Z,3.22
2018-10-12T17:22:58.860Z,3.12
2018-10-12T17:25:27.195Z,2.95
2018-10-12T17:27:55.531Z,3.47
2018-10-12T17:30:24.341Z,3.33
2018-10-12T17:32:52.614Z,3.20
2018-10-12T17:35:20.924Z,3.60
2018-10-12T17:37:49.257Z,3.20
2018-10-12T17:40:17.652Z,3.15
2018-10-12T17:42:46.052Z,4.00
2018-10-12T17:45:14.323Z,3.65
2018-10-12T17:47:42.766Z,3.47
2018-10-12T17:50:11.099Z,3.12
2018-10-12T17:52:39.704Z,3.30
2018-10-12T17:55:08.262Z,3.73
2018-10-12T17:57:36.527Z,3.77
2018-10-12T18:00:05.395Z,3.50
2018-10-12T18:02:33.650Z,3.60
2018-10-12T18:05:02.018Z,3.90
2018-10-12T18:07:30.298Z,3.60
2018-10-12T18:09:58.731Z,3.80
2018-10-12T18:12:27.158Z,3.97
2018-10-12T18:14:55.699Z,3.77
2018-10-12T18:17:24.084Z,3.30
2018-10-12T18:19:52.470Z,3.47
2018-10-12T18:22:21.112Z,3.50
2018-10-12T18:24:49.622Z,3.73
2018-10-12T18:27:18.026Z,3.47
2018-10-12T18:29:46.358Z,3.50
2018-10-12T18:32:15.043Z,3.47
2018-10-12T18:34:43.344Z,3.93
2018-10-12T18:37:11.803Z,4.40
2018-10-12T18:39:40.306Z,4.07
2018-10-12T18:42:08.745Z,4.00
2018-10-12T18:44:37.244Z,4.37
2018-10-12T18:47:05.672Z,4.20
2018-10-12T18:49:34.042Z,4.40
2018-10-12T18:52:02.341Z,4.40
2018-10-12T18:54:30.738Z,4.73
2018-10-12T18:56:59.143Z,4.37
2018-10-12T18:59:27.802Z,4.40
2018-10-12T19:01:56.093Z,4.97
2018-10-12T19:04:24.996Z,4.63
2018-10-12T19:06:53.219Z,4.90
2018-10-12T19:09:21.723Z,5.03
2018-10-12T19:11:50.297Z,5.23
2018-10-12T19:14:18.616Z,5.30
2018-10-12T19:16:46.888Z,5.40
2018-10-12T19:19:15.372Z,5.30
2018-10-12T19:21:43.803Z,6.00
2018-10-12T19:24:13.226Z,5.60
2018-10-12T19:26:41.836Z,5.37
2018-10-12T19:29:10.125Z,7.40
2018-10-12T19:31:39.259Z,7.10
2018-10-12T19:34:07.691Z,7.50
2018-10-12T19:36:36.060Z,6.33
2018-10-12T19:39:05.758Z,6.50
2018-10-12T19:41:35.206Z,6.90
2018-10-12T19:44:03.556Z,6.87
2018-10-12T19:46:33.112Z,7.70
2018-10-12T19:49:01.441Z,9.13
2018-10-12T19:51:30.155Z,22.10
2018-10-12T19:53:58.559Z,15.53
2018-10-12T19:56:26.890Z,69.10
2018-10-12T19:58:56.413Z,8.57
2018-10-12T20:01:24.818Z,15.80
2018-10-12T20:03:53.131Z,8.97
2018-10-12T20:06:21.416Z,11.87
2018-10-12T20:08:49.936Z,7.23
2018-10-12T20:11:18.368Z,5.93
2018-10-12T20:13:46.701Z,5.50
2018-10-12T20:16:15.155Z,5.87
2018-10-12T20:18:43.537Z,5.77
2018-10-12T20:21:13.142Z,6.20
2018-10-12T20:23:41.528Z,5.53
2018-10-12T20:26:10.123Z,5.47
2018-10-12T20:28:38.936Z,5.20
2018-10-12T20:31:07.524Z,5.40
2018-10-12T20:33:35.926Z,4.70
2018-10-12T20:36:04.492Z,5.20
2018-10-12T20:38:32.827Z,5.73
2018-10-12T20:41:01.271Z,5.93
2018-10-12T20:43:29.626Z,6.53
2018-10-12T20:45:58.075Z,6.20
2018-10-12T20:48:26.408Z,6.83
2018-10-12T20:50:54.723Z,6.43
2018-10-12T20:53:23.034Z,6.20
2018-10-12T20:55:51.796Z,7.00
2018-10-12T20:58:20.139Z,6.60
2018-10-12T21:00:49.155Z,6.47
2018-10-12T21:03:17.615Z,6.23
2018-10-12T21:05:46.019Z,6.37
2018-10-12T21:08:14.326Z,6.77
2018-10-12T21:10:42.781Z,7.17
2018-10-12T21:13:11.149Z,6.13
2018-10-12T21:15:39.510Z,6.80
2018-10-12T21:18:07.893Z,7.33
2018-10-12T21:20:36.364Z,43.50
2018-10-12T21:23:04.718Z,76.33
2018-10-12T21:25:33.108Z,83.60
2018-10-12T21:28:01.461Z,6.33
2018-10-12T21:30:29.902Z,6.67
2018-10-12T21:32:58.225Z,6.43
2018-10-12T21:35:26.913Z,6.80
2018-10-12T21:37:55.309Z,6.60
2018-10-12T21:40:23.716Z,7.03
2018-10-12T21:42:52.029Z,6.30
2018-10-12T21:45:20.476Z,6.73
2018-10-12T21:47:50.180Z,6.40
2018-10-12T21:50:18.721Z,6.60
2018-10-12T21:52:46.984Z,6.60
2018-10-12T21:55:15.504Z,6.20
2018-10-12T21:57:43.831Z,7.13
2018-10-12T22:00:12.186Z,6.53
2018-10-12T22:02:40.626Z,6.43
2018-10-12T22:05:09.138Z,6.13
2018-10-12T22:07:37.467Z,6.17
2018-10-12T22:10:05.986Z,6.53
2018-10-12T22:12:34.615Z,7.07
2018-10-12T22:15:02.901Z,6.80
2018-10-12T22:17:31.309Z,6.57
2018-10-12T22:19:59.612Z,6.50
2018-10-12T22:22:27.965Z,7.40
2018-10-12T22:24:56.221Z,7.10
2018-10-12T22:27:24.713Z,7.53
2018-10-12T22:29:53.119Z,7.93
2018-10-12T22:32:21.489Z,7.60
2018-10-12T22:34:49.823Z,6.90
2018-10-12T22:37:18.157Z,7.27
2018-10-12T22:39:46.517Z,7.80
2018-10-12T22:42:15.296Z,7.10
2018-10-12T22:44:44.146Z,7.20
2018-10-12T22:47:12.439Z,7.17
2018-10-12T22:49:41.053Z,7.43
2018-10-12T22:52:09.381Z,7.40
2018-10-12T22:54:37.712Z,7.07
2018-10-12T22:57:06.191Z,7.63
2018-10-12T22:59:35.471Z,7.80
2018-10-12T23:02:03.872Z,7.73
2018-10-12T23:04:32.353Z,7.77
2018-10-12T23:07:00.704Z,7.97
2018-10-12T23:09:29.004Z,8.07
2018-10-12T23:11:57.443Z,7.73
2018-10-12T23:14:25.732Z,7.43
2018-10-12T23:16:54.088Z,8.03
2018-10-12T23:19:22.437Z,8.07
2018-10-12T23:21:50.754Z,8.03
2018-10-12T23:24:19.024Z,8.00
2018-10-12T23:26:47.461Z,7.67
2018-10-12T23:29:15.772Z,7.80
2018-10-12T23:31:44.135Z,7.90
2018-10-12T23:34:12.435Z,8.10
2018-10-12T23:36:40.769Z,7.80
2018-10-12T23:39:10.020Z,7.87
2018-10-12T23:41:40.842Z,7.70
2018-10-12T23:44:09.166Z,8.30
2018-10-12T23:46:37.495Z,8.77
2018-10-12T23:49:05.868Z,8.23
2018-10-12T23:51:34.180Z,8.07
2018-10-12T23:54:02.603Z,8.20
2018-10-12T23:56:31.003Z,8.50
2018-10-12T23:58:59.348Z,7.80
